Time;durP1;ratioP1;P1;durP2;ratioP2;P2;SDS_P1;SDS_P2;PMS_P1;PMS_P2;Temp;Humidity;BMP_temperature;BMP_pressure;BME280_temperature;BME280_humidity;BME280_pressure;Samples;Min_cycle;Max_cycle;Signal;HPM_P1;HPM_P2
2021/06/30 00:01:26;;;;;;;;;7.00;7.00;;;;;22.98;49.10;100910.97;5076759;27;45274;-57
2021/06/30 00:03:52;;;;;;;;;6.00;6.00;;;;;22.97;49.15;100906.63;5076762;28;45353;-57
2021/06/30 00:06:18;;;;;;;;;8.00;6.50;;;;;22.98;49.25;100900.41;5076898;28;45461;-57
2021/06/30 00:08:45;;;;;;;;;6.50;6.50;;;;;22.98;48.94;100908.34;5075805;28;45540;-57
2021/06/30 00:11:11;;;;;;;;;5.00;5.00;;;;;22.98;49.13;100903.88;5076591;27;45377;-56
2021/06/30 00:13:37;;;;;;;;;4.50;4.50;;;;;22.98;49.08;100905.69;5076778;28;45325;-57
2021/06/30 00:16:04;;;;;;;;;8.00;8.00;;;;;22.98;48.95;100908.34;5077121;28;45302;-55
2021/06/30 00:18:29;;;;;;;;;5.50;5.00;;;;;22.98;49.17;100901.25;5077018;28;45370;-56
2021/06/30 00:20:55;;;;;;;;;6.25;5.25;;;;;22.97;49.15;100901.34;5076500;28;45258;-56
2021/06/30 00:23:20;;;;;;;;;9.50;6.75;;;;;22.98;49.10;100898.59;5076569;27;45383;-57
2021/06/30 00:25:46;;;;;;;;;5.50;5.50;;;;;22.97;49.20;100891.59;5076631;28;45346;-56
2021/06/30 00:28:11;;;;;;;;;7.25;5.25;;;;;22.96;49.22;100892.56;5075379;28;45350;-56
2021/06/30 00:30:38;;;;;;;;;6.00;6.00;;;;;22.97;49.32;100888.97;5076568;28;46989;-57
2021/06/30 00:33:04;;;;;;;;;5.50;5.50;;;;;22.98;49.44;100897.75;5076765;28;45383;-56
2021/06/30 00:35:30;;;;;;;;;6.25;6.25;;;;;22.96;49.24;100900.47;5076568;28;45446;-57
2021/06/30 00:37:55;;;;;;;;;6.50;5.75;;;;;22.98;49.39;100905.69;5076448;28;45409;-56
2021/06/30 00:40:21;;;;;;;;;4.50;4.50;;;;;22.97;49.26;100901.34;5076213;28;45313;-56
2021/06/30 00:42:47;;;;;;;;;4.25;4.25;;;;;22.96;49.13;100899.66;5076200;28;45268;-57
2021/06/30 00:45:16;;;;;;;;;4.75;4.75;;;;;22.95;49.23;100895.31;5076403;28;45257;-57
2021/06/30 00:47:42;;;;;;;;;5.50;5.25;;;;;22.97;49.41;100898.72;5075285;28;45450;-57
2021/06/30 00:50:08;;;;;;;;;6.00;5.75;;;;;22.95;49.40;100896.13;5076549;28;46245;-57
2021/06/30 00:52:33;;;;;;;;;6.25;5.25;;;;;22.98;49.40;100900.41;5075970;28;45550;-56
2021/06/30 00:54:58;;;;;;;;;6.50;6.00;;;;;22.97;49.54;100893.41;5076262;28;45448;-57
2021/06/30 00:57:24;;;;;;;;;7.50;6.00;;;;;22.97;49.51;100896.06;5076448;28;45451;-56
2021/06/30 00:59:49;;;;;;;;;4.50;4.50;;;;;22.97;49.50;100890.78;5076014;27;46148;-57
2021/06/30 01:02:15;;;;;;;;;5.25;5.25;;;;;22.97;49.67;100901.34;5074776;28;45399;-57
2021/06/30 01:04:40;;;;;;;;;5.25;4.50;;;;;22.95;49.53;100896.13;5076147;27;45397;-57
2021/06/30 01:07:06;;;;;;;;;4.25;4.25;;;;;22.96;49.59;100899.66;5076630;28;45493;-57
2021/06/30 01:09:32;;;;;;;;;6.75;5.50;;;;;22.97;49.33;100904.00;5075792;28;47412;-57
2021/06/30 01:11:59;;;;;;;;;5.50;5.00;;;;;22.97;49.59;100901.34;5075848;28;45334;-56
2021/06/30 01:14:25;;;;;;;;;5.75;5.75;;;;;22.98;49.59;100897.75;5076000;28;45185;-56
2021/06/30 01:16:51;;;;;;;;;5.00;5.00;;;;;22.96;49.42;100900.47;5076211;28;45357;-57
2021/06/30 01:19:22;;;;;;;;;4.75;4.75;;;;;22.97;49.35;100901.34;5076812;27;46056;-56
2021/06/30 01:21:49;;;;;;;;;5.00;5.00;;;;;22.97;49.57;100896.06;5079368;28;45724;-56
2021/06/30 01:24:15;;;;;;;;;7.00;4.00;;;;;22.95;49.34;100895.31;5079450;27;45419;-57
2021/06/30 01:26:41;;;;;;;;;7.00;4.00;;;;;22.93;49.92;100895.38;5079882;28;45256;-57
2021/06/30 01:29:06;;;;;;;;;5.50;5.50;;;;;22.97;49.71;100890.78;5079390;28;45274;-57
2021/06/30 01:31:31;;;;;;;;;5.50;4.25;;;;;22.93;49.74;100886.63;5079182;27;45681;-56
2021/06/30 01:33:57;;;;;;;;;4.50;4.00;;;;;22.96;49.66;100891.72;5079205;28;45271;-56
2021/06/30 01:36:23;;;;;;;;;6.25;5.50;;;;;22.95;49.39;100890.03;5079318;27;45520;-57
2021/06/30 01:38:48;;;;;;;;;4.25;4.25;;;;;22.96;49.62;100891.72;5078699;27;45503;-57
2021/06/30 01:41:14;;;;;;;;;4.00;4.00;;;;;22.95;49.69;100887.38;5079019;27;45369;-56
2021/06/30 01:43:40;;;;;;;;;4.75;4.50;;;;;22.96;49.53;100891.72;5079351;27;45395;-57
2021/06/30 01:46:06;;;;;;;;;5.50;3.00;;;;;22.96;49.65;100891.72;5079277;28;45586;-57
2021/06/30 01:48:31;;;;;;;;;4.75;4.75;;;;;22.92;49.77;100884.94;5078906;28;46507;-57
2021/06/30 01:50:56;;;;;;;;;5.75;4.25;;;;;22.95;49.69;100893.50;5078935;28;45393;-57
2021/06/30 01:53:22;;;;;;;;;3.00;3.00;;;;;22.95;49.48;100903.25;5078723;27;45417;-56
2021/06/30 01:55:47;;;;;;;;;4.00;4.00;;;;;22.95;49.85;100897.94;5079127;28;45362;-57
2021/06/30 01:58:17;;;;;;;;;3.75;3.75;;;;;22.92;49.63;100896.38;5077350;28;47445;-57
2021/06/30 02:00:42;;;;;;;;;5.25;4.25;;;;;22.95;49.74;100903.25;5078897;27;45666;-57
2021/06/30 02:03:07;;;;;;;;;6.50;4.50;;;;;22.95;49.88;100905.88;5078825;27;45251;-57
2021/06/30 02:05:33;;;;;;;;;3.00;3.00;;;;;22.94;50.11;100899.72;5079063;28;46056;-57
2021/06/30 02:08:00;;;;;;;;;4.25;4.25;;;;;22.95;50.17;100905.88;5078519;27;46067;-57
2021/06/30 02:10:28;;;;;;;;;3.00;3.00;;;;;22.93;49.80;100905.97;5077289;28;45988;-57
2021/06/30 02:12:53;;;;;;;;;3.50;3.50;;;;;22.94;50.13;100902.38;5078563;28;45286;-57
2021/06/30 02:15:24;;;;;;;;;5.00;4.00;;;;;22.93;49.80;100900.66;5078784;27;45615;-57
2021/06/30 02:17:50;;;;;;;;;4.25;4.25;;;;;22.93;49.75;100897.19;5078566;28;45393;-57
2021/06/30 02:20:17;;;;;;;;;4.50;3.00;;;;;22.94;49.66;100899.72;5078404;28;45974;-56
2021/06/30 02:22:44;;;;;;;;;4.50;4.50;;;;;22.94;49.99;100904.19;5078772;28;45309;-57
2021/06/30 02:25:12;;;;;;;;;5.00;4.00;;;;;22.94;50.12;100907.66;5078808;28;45449;-56
2021/06/30 02:27:39;;;;;;;;;5.50;4.00;;;;;22.94;50.17;100910.31;5077584;27;45436;-57
2021/06/30 02:30:17;;;;;;;;;4.50;4.50;;;;;22.87;49.90;100894.97;5077977;28;45436;-56
2021/06/30 02:32:44;;;;;;;;;4.50;4.50;;;;;22.93;50.05;100907.78;5078398;28;45417;-56
2021/06/30 02:35:13;;;;;;;;;6.50;4.00;;;;;22.92;50.13;100906.94;5078647;28;45177;-57
2021/06/30 02:37:39;;;;;;;;;6.25;3.75;;;;;22.93;50.13;100911.25;5078136;28;46361;-57
2021/06/30 02:40:08;;;;;;;;;5.75;4.50;;;;;22.94;50.15;100914.75;5077801;28;45815;-57
2021/06/30 02:42:33;;;;;;;;;3.75;3.75;;;;;22.93;50.18;100913.06;5077103;28;45449;-56
2021/06/30 02:44:59;;;;;;;;;4.00;4.00;;;;;22.93;50.27;100923.63;5078427;27;45615;-56
2021/06/30 02:47:24;;;;;;;;;5.00;4.50;;;;;22.91;50.48;100910.53;5077961;28;45335;-56
2021/06/30 02:49:49;;;;;;;;;5.25;4.00;;;;;22.92;50.25;100914.00;5077944;27;45296;-57
2021/06/30 02:52:15;;;;;;;;;6.00;6.00;;;;;22.91;50.09;100914.94;5078360;28;45476;-57
2021/06/30 02:54:40;;;;;;;;;5.75;3.50;;;;;22.92;50.30;100914.00;5077229;28;45423;-56
2021/06/30 02:57:06;;;;;;;;;5.00;5.00;;;;;22.93;50.07;100920.97;5076540;28;48418;-57
2021/06/30 02:59:31;;;;;;;;;4.75;4.75;;;;;22.92;50.22;100924.56;5077880;27;45330;-56
2021/06/30 03:01:56;;;;;;;;;6.00;4.25;;;;;22.92;50.41;100921.94;5077974;28;45286;-57
2021/06/30 03:04:22;;;;;;;;;4.00;4.00;;;;;22.92;50.29;100919.28;5077952;28;46025;-57
2021/06/30 03:06:47;;;;;;;;;5.00;5.00;;;;;22.89;50.45;100924.75;5077471;28;51537;-57
2021/06/30 03:09:12;;;;;;;;;5.25;5.25;;;;;22.91;50.15;100926.38;5077990;28;45397;-57
2021/06/30 03:11:39;;;;;;;;;5.00;5.00;;;;;22.91;49.94;100922.88;5077806;27;45291;-57
2021/06/30 03:14:05;;;;;;;;;6.00;6.00;;;;;22.91;50.01;100925.50;5077738;28;45617;-57
2021/06/30 03:16:30;;;;;;;;;5.00;5.00;;;;;22.91;50.25;100925.50;5077569;28;45301;-57
2021/06/30 03:18:55;;;;;;;;;4.00;4.00;;;;;22.90;49.94;100927.31;5077366;28;45394;-57
2021/06/30 03:21:21;;;;;;;;;5.00;4.00;;;;;22.91;50.13;100930.78;5077733;28;45432;-57
2021/06/30 03:23:46;;;;;;;;;4.75;4.75;;;;;22.91;50.21;100930.78;5078005;27;45279;-57
2021/06/30 03:26:11;;;;;;;;;6.00;3.50;;;;;22.89;50.15;100927.41;5077700;28;46138;-56
2021/06/30 03:28:37;;;;;;;;;8.75;5.50;;;;;22.89;50.06;100927.41;5077531;28;45359;-57
2021/06/30 03:31:02;;;;;;;;;4.50;3.25;;;;;22.89;50.05;100927.41;5077572;28;45468;-57
2021/06/30 03:33:27;;;;;;;;;6.00;6.00;;;;;22.88;50.10;100925.69;5077467;27;45354;-57
2021/06/30 03:35:53;;;;;;;;;5.00;4.50;;;;;22.89;50.04;100935.31;5077069;28;45934;-57
2021/06/30 03:38:18;;;;;;;;;5.75;5.75;;;;;22.88;50.12;100933.63;5077056;28;45481;-57
2021/06/30 03:40:45;;;;;;;;;5.75;5.00;;;;;22.89;49.80;100932.69;5077551;28;45338;-57
2021/06/30 03:43:10;;;;;;;;;6.50;6.00;;;;;22.89;49.85;100932.69;5077350;28;45555;-57
2021/06/30 03:45:36;;;;;;;;;7.00;7.00;;;;;22.86;49.68;100936.38;5076949;28;46285;-57
2021/06/30 03:48:01;;;;;;;;;9.50;6.75;;;;;22.85;50.00;100932.91;5076933;27;45228;-57
2021/06/30 03:50:27;;;;;;;;;6.50;6.00;;;;;22.87;49.94;100947.81;5077077;28;45338;-57
2021/06/30 03:52:52;;;;;;;;;4.25;4.25;;;;;22.82;49.80;100932.25;5077177;27;45576;-57
2021/06/30 03:55:17;;;;;;;;;8.25;6.00;;;;;22.85;49.86;100932.03;5077175;27;46443;-57
2021/06/30 03:57:43;;;;;;;;;5.50;5.50;;;;;22.86;49.75;100933.72;5077177;28;45362;-56
2021/06/30 04:00:09;;;;;;;;;7.00;7.00;;;;;22.87;49.84;100947.81;5077130;28;45461;-56
2021/06/30 04:02:34;;;;;;;;;4.75;4.75;;;;;22.85;49.73;100943.47;5075892;28;45312;-56
2021/06/30 04:05:00;;;;;;;;;6.75;6.75;;;;;22.85;49.67;100943.47;5076882;28;46335;-56
2021/06/30 04:07:25;;;;;;;;;8.25;7.00;;;;;22.83;49.75;100934.78;5076867;28;45327;-56
2021/06/30 04:09:51;;;;;;;;;8.00;7.50;;;;;22.84;49.58;100940.91;5076996;28;45908;-56
2021/06/30 04:12:17;;;;;;;;;7.50;7.50;;;;;22.83;49.58;100933.94;5077191;28;45431;-56
2021/06/30 04:14:42;;;;;;;;;8.75;6.50;;;;;22.85;49.73;100943.47;5076658;28;45324;-56
2021/06/30 04:17:07;;;;;;;;;7.50;6.00;;;;;22.83;49.63;100934.78;5076811;28;45319;-56
2021/06/30 04:19:33;;;;;;;;;7.75;6.25;;;;;22.83;49.87;100940.06;5076761;28;45287;-56
2021/06/30 04:21:58;;;;;;;;;7.25;7.00;;;;;22.85;49.61;100942.59;5076990;27;45472;-57
2021/06/30 04:24:23;;;;;;;;;10.00;8.00;;;;;22.83;49.80;100940.06;5076493;28;45272;-56
2021/06/30 04:26:49;;;;;;;;;10.75;7.25;;;;;22.82;49.86;100937.53;5076814;28;45169;-57
2021/06/30 04:29:14;;;;;;;;;6.75;6.75;;;;;22.83;49.94;100939.22;5076627;28;45180;-55
2021/06/30 04:31:39;;;;;;;;;7.25;6.25;;;;;22.83;49.69;100940.06;5076896;28;45664;-56
2021/06/30 04:34:05;;;;;;;;;7.25;7.25;;;;;22.79;49.76;100935.91;5076428;28;45770;-57
2021/06/30 04:36:30;;;;;;;;;9.00;8.00;;;;;22.82;49.76;100948.13;5076540;28;45152;-56
2021/06/30 04:38:55;;;;;;;;;8.50;8.50;;;;;22.82;49.57;100945.47;5075070;27;45279;-57
2021/06/30 04:41:21;;;;;;;;;7.50;7.25;;;;;22.82;49.60;100948.94;5076698;28;45466;-57
2021/06/30 04:43:46;;;;;;;;;10.00;8.75;;;;;22.81;49.69;100949.88;5075268;27;46240;-57
2021/06/30 04:46:12;;;;;;;;;7.25;6.75;;;;;22.82;49.62;100945.47;5076297;28;45337;-56
2021/06/30 04:48:38;;;;;;;;;7.75;7.75;;;;;22.78;49.52;100944.78;5076385;28;45258;-57
2021/06/30 04:51:04;;;;;;;;;9.00;8.50;;;;;22.80;49.74;100945.53;5076604;28;45828;-55
2021/06/30 04:53:30;;;;;;;;;7.50;6.25;;;;;22.81;49.64;100951.69;5075959;28;45901;-57
2021/06/30 04:55:55;;;;;;;;;5.75;5.75;;;;;22.81;49.69;100946.41;5079774;28;45383;-57
2021/06/30 04:58:23;;;;;;;;;8.25;7.75;;;;;22.82;49.67;100951.59;5080406;27;45448;-56
2021/06/30 05:00:53;;;;;;;;;8.25;8.25;;;;;22.81;49.58;100944.59;5080092;27;45498;-57
2021/06/30 05:03:18;;;;;;;;;7.25;5.50;;;;;22.82;49.61;100953.41;5080116;28;45339;-57
2021/06/30 05:05:43;;;;;;;;;7.50;6.25;;;;;22.79;49.63;100951.78;5078266;28;45945;-57
2021/06/30 05:08:09;;;;;;;;;6.50;6.00;;;;;22.80;49.74;100956.13;5079669;27;45474;-58
2021/06/30 05:10:34;;;;;;;;;3.25;3.25;;;;;22.80;49.92;100960.56;5079713;28;45323;-57
2021/06/30 05:12:59;;;;;;;;;5.75;5.75;;;;;22.79;49.66;100959.69;5079374;27;45404;-56
2021/06/30 05:15:25;;;;;;;;;7.00;7.00;;;;;22.80;49.91;100957.94;5079435;27;45390;-57
2021/06/30 05:17:50;;;;;;;;;5.00;5.00;;;;;22.78;49.96;100960.63;5079880;28;45398;-57
2021/06/30 05:20:16;;;;;;;;;5.50;5.50;;;;;22.81;49.79;100962.25;5079597;28;45482;-57
2021/06/30 05:22:41;;;;;;;;;6.00;6.00;;;;;22.80;49.56;100958.75;5078030;27;45894;-57
2021/06/30 05:25:08;;;;;;;;;7.00;6.00;;;;;22.78;49.55;100949.25;5079117;27;45382;-57
2021/06/30 05:27:33;;;;;;;;;6.50;6.50;;;;;22.74;49.79;100951.22;5079284;28;45381;-58
2021/06/30 05:29:58;;;;;;;;;6.50;6.50;;;;;22.81;49.70;100972.84;5079337;27;45199;-57
2021/06/30 05:32:24;;;;;;;;;6.00;5.75;;;;;22.80;49.80;100966.69;5079115;27;45234;-57
2021/06/30 05:34:49;;;;;;;;;6.50;6.50;;;;;22.80;49.64;100971.97;5079397;28;45327;-57
2021/06/30 05:37:14;;;;;;;;;2.50;2.50;;;;;22.80;49.82;100979.91;5079258;28;45218;-57
2021/06/30 05:39:40;;;;;;;;;6.75;6.75;;;;;22.80;49.67;100974.63;5077945;28;45667;-57
2021/06/30 05:42:05;;;;;;;;;5.50;5.25;;;;;22.79;49.72;100978.19;5078901;28;45338;-57
2021/06/30 05:44:31;;;;;;;;;9.50;6.00;;;;;22.79;49.42;100975.56;5078896;27;45290;-57
2021/06/30 05:46:56;;;;;;;;;6.00;6.00;;;;;22.79;49.55;100975.56;5077773;28;45310;-57
2021/06/30 05:49:21;;;;;;;;;4.25;4.25;;;;;22.78;49.58;100975.66;5079464;28;45325;-57
2021/06/30 05:51:47;;;;;;;;;4.50;3.50;;;;;22.78;49.71;100980.94;5078677;27;45994;-57
2021/06/30 05:54:12;;;;;;;;;5.25;5.00;;;;;22.78;49.66;100973.84;5078710;27;45279;-57
2021/06/30 05:56:38;;;;;;;;;6.25;5.25;;;;;22.79;49.61;100977.38;5078882;28;45239;-57
2021/06/30 05:59:05;;;;;;;;;6.00;6.00;;;;;22.77;49.29;100976.59;5077712;28;45418;-57
2021/06/30 06:01:30;;;;;;;;;7.25;5.75;;;;;22.78;49.42;100987.06;5078449;28;45402;-57
2021/06/30 06:03:56;;;;;;;;;5.75;4.75;;;;;22.79;49.65;100990.56;5078565;28;45454;-58
2021/06/30 06:06:21;;;;;;;;;5.00;4.00;;;;;22.78;49.62;100981.78;5077780;27;45409;-57
2021/06/30 06:08:46;;;;;;;;;4.75;3.75;;;;;22.77;49.52;100988.00;5078871;28;45393;-56
2021/06/30 06:11:12;;;;;;;;;3.50;3.50;;;;;22.78;49.27;100994.16;5078420;28;45454;-57
2021/06/30 06:13:44;;;;;;;;;5.00;5.00;;;;;22.78;49.46;100995.00;5078311;28;45441;-57
2021/06/30 06:16:14;;;;;;;;;5.75;5.00;;;;;22.78;49.42;100996.81;5078513;28;45479;-57
2021/06/30 06:18:40;;;;;;;;;4.00;4.00;;;;;22.76;49.80;100990.75;5078739;28;45493;-58
2021/06/30 06:21:05;;;;;;;;;5.00;5.00;;;;;22.76;49.61;100994.25;5078333;28;45436;-57
2021/06/30 06:23:31;;;;;;;;;5.00;5.00;;;;;22.77;49.24;100995.94;5078465;28;45339;-57
2021/06/30 06:25:56;;;;;;;;;3.25;3.25;;;;;22.77;49.75;101001.22;5078450;28;45464;-57
2021/06/30 06:28:21;;;;;;;;;4.00;4.00;;;;;22.76;49.58;101002.19;5078839;27;45504;-57
2021/06/30 06:30:49;;;;;;;;;5.00;5.00;;;;;22.76;49.47;101007.47;5078193;27;45220;-57
2021/06/30 06:33:16;;;;;;;;;5.25;5.25;;;;;22.77;49.59;101003.88;5078218;28;45806;-56
2021/06/30 06:35:42;;;;;;;;;6.00;6.00;;;;;22.76;49.50;101011.91;5078260;28;45735;-57
2021/06/30 06:38:08;;;;;;;;;5.50;5.50;;;;;22.76;49.41;101012.75;5078278;28;45441;-57
2021/06/30 06:40:33;;;;;;;;;5.50;4.00;;;;;22.76;49.63;101018.03;5078136;28;45397;-57
2021/06/30 06:42:58;;;;;;;;;3.75;3.75;;;;;22.76;49.56;101018.03;5077968;28;45235;-57
2021/06/30 06:45:24;;;;;;;;;6.00;5.00;;;;;22.73;49.65;101023.50;5078393;28;45285;-57
2021/06/30 06:47:49;;;;;;;;;4.00;3.25;;;;;22.73;49.47;101028.81;5078271;27;45215;-57
2021/06/30 06:50:14;;;;;;;;;4.00;4.00;;;;;22.71;49.37;101030.69;5077904;28;45357;-57
2021/06/30 06:52:40;;;;;;;;;4.00;4.00;;;;;22.69;49.62;101022.00;5077848;28;45220;-57
2021/06/30 06:55:10;;;;;;;;;6.00;6.00;;;;;22.69;49.68;101027.28;5078083;28;45347;-57
2021/06/30 06:57:36;;;;;;;;;6.75;6.75;;;;;22.67;49.75;101029.16;5078235;28;45378;-57
2021/06/30 07:00:03;;;;;;;;;4.00;4.00;;;;;22.62;49.59;101021.53;5077690;28;46063;-57
2021/06/30 07:02:29;;;;;;;;;5.50;5.25;;;;;22.61;49.75;101026.91;5077781;28;45653;-57
2021/06/30 07:04:54;;;;;;;;;4.00;4.00;;;;;22.60;49.82;101030.50;5078065;28;45303;-57
2021/06/30 07:07:19;;;;;;;;;5.25;5.25;;;;;22.58;49.54;101024.44;5077764;28;45589;-57
2021/06/30 07:09:44;;;;;;;;;4.00;4.00;;;;;22.55;49.58;101021.03;5077511;28;46545;-57
2021/06/30 07:12:10;;;;;;;;;7.75;6.00;;;;;22.52;49.79;101028.31;5077777;27;45216;-57
2021/06/30 07:14:35;;;;;;;;;7.00;6.00;;;;;22.52;49.54;101025.66;5076293;28;45280;-57
2021/06/30 07:17:01;;;;;;;;;9.75;7.00;;;;;22.49;49.88;101032.00;5077294;28;45249;-57
2021/06/30 07:19:26;;;;;;;;;5.00;5.00;;;;;22.49;49.78;101037.28;5077619;28;45998;-57
2021/06/30 07:21:51;;;;;;;;;6.75;6.00;;;;;22.47;49.97;101033.03;5075947;28;45273;-57
2021/06/30 07:24:17;;;;;;;;;5.00;5.00;;;;;22.45;49.65;101025.19;5077400;28;45304;-57
2021/06/30 07:26:42;;;;;;;;;6.00;5.25;;;;;22.45;50.08;101032.28;5077598;28;45521;-56
2021/06/30 07:29:09;;;;;;;;;6.50;6.00;;;;;22.42;49.64;101030.69;5075748;27;45512;-56
2021/06/30 07:31:36;;;;;;;;;6.00;5.50;;;;;22.40;49.90;101032.53;5077130;28;45428;-56
2021/06/30 07:34:02;;;;;;;;;5.50;4.25;;;;;22.42;50.14;101041.25;5076475;27;45382;-57
2021/06/30 07:36:28;;;;;;;;;7.00;4.75;;;;;22.43;50.11;101039.44;5077760;27;45393;-57
2021/06/30 07:38:53;;;;;;;;;6.50;4.00;;;;;22.46;50.04;101040.09;5077342;28;45543;-57
2021/06/30 07:41:18;;;;;;;;;7.25;7.25;;;;;22.48;50.14;101046.13;5077187;27;45369;-57
2021/06/30 07:43:44;;;;;;;;;4.00;3.75;;;;;22.47;49.86;101049.72;5077005;27;45176;-56
2021/06/30 07:46:09;;;;;;;;;5.00;5.00;;;;;22.51;50.26;101050.38;5077441;27;45223;-57
2021/06/30 07:48:34;;;;;;;;;6.25;5.50;;;;;22.54;49.91;101052.84;5075677;28;46431;-58
2021/06/30 07:51:00;;;;;;;;;5.75;5.75;;;;;22.57;49.80;101054.44;5077122;27;45357;-57
2021/06/30 07:53:25;;;;;;;;;4.75;4.75;;;;;22.57;49.89;101059.72;5076081;28;45442;-57
2021/06/30 07:55:52;;;;;;;;;3.75;3.75;;;;;22.55;49.95;101052.75;5077154;27;45263;-55
2021/06/30 07:58:20;;;;;;;;;9.25;7.00;;;;;22.57;50.08;101052.66;5075500;27;45600;-56
2021/06/30 08:00:45;;;;;;;;;7.25;7.00;;;;;22.57;49.99;101057.09;5076729;27;45345;-57
2021/06/30 08:03:11;;;;;;;;;7.00;5.00;;;;;22.56;50.33;101053.59;5076815;27;45443;-56
2021/06/30 08:05:36;;;;;;;;;6.75;6.75;;;;;22.54;50.78;101050.19;5077052;27;45334;-57
2021/06/30 08:08:02;;;;;;;;;8.75;7.75;;;;;22.55;50.45;101050.09;5075183;27;45425;-57
2021/06/30 08:10:27;;;;;;;;;12.50;8.75;;;;;22.52;50.78;101047.66;5075524;27;46012;-57
2021/06/30 08:12:53;;;;;;;;;7.25;6.75;;;;;22.54;50.73;101040.47;5076674;27;45413;-57
2021/06/30 08:15:18;;;;;;;;;7.50;7.00;;;;;22.56;51.05;101043.03;5076757;28;45549;-57
2021/06/30 08:17:49;;;;;;;;;7.25;6.25;;;;;22.57;50.98;101050.03;5075198;28;46147;-57
2021/06/30 08:20:14;;;;;;;;;8.50;7.00;;;;;22.59;51.34;101050.78;5075212;28;45747;-57
2021/06/30 08:22:40;;;;;;;;;8.25;7.25;;;;;22.58;51.37;101040.28;5076635;27;45362;-57
2021/06/30 08:25:07;;;;;;;;;8.75;6.25;;;;;22.59;51.40;101044.63;5076842;27;45490;-57
2021/06/30 08:27:34;;;;;;;;;7.50;5.50;;;;;22.58;51.48;101051.72;5075266;27;46176;-60
2021/06/30 08:30:01;;;;;;;;;6.00;5.75;;;;;22.61;51.32;101045.41;5078733;27;45223;-57
2021/06/30 08:32:27;;;;;;;;;9.75;8.25;;;;;22.64;51.17;101053.16;5080083;27;45263;-57
2021/06/30 08:34:54;;;;;;;;;6.00;6.00;;;;;22.66;51.13;101051.22;5062049;28;45559;-58
2021/06/30 08:37:20;;;;;;;;;9.00;9.00;;;;;22.67;51.09;101050.28;5079815;27;45413;-57
2021/06/30 08:39:46;;;;;;;;;5.00;5.00;;;;;22.68;50.91;101052.88;5079508;27;45288;-57
2021/06/30 08:42:15;;;;;;;;;7.00;5.50;;;;;22.68;50.89;101050.22;5079882;27;45346;-57
2021/06/30 08:44:40;;;;;;;;;6.75;6.00;;;;;22.70;50.75;101052.75;5079982;27;45249;-58
2021/06/30 08:47:07;;;;;;;;;9.25;7.25;;;;;22.72;50.76;101052.66;5079582;28;45882;-57
2021/06/30 08:49:34;;;;;;;;;6.75;6.25;;;;;22.73;50.58;101054.34;5079961;27;45891;-57
2021/06/30 08:52:00;;;;;;;;;5.25;5.25;;;;;22.73;50.55;101049.06;5080278;27;45322;-57
2021/06/30 08:54:26;;;;;;;;;9.75;8.75;;;;;22.73;50.46;101049.94;5079834;27;45291;-57
2021/06/30 08:56:52;;;;;;;;;8.00;8.00;;;;;22.74;50.31;101046.34;5079737;27;46041;-57
2021/06/30 08:59:21;;;;;;;;;8.50;7.00;;;;;22.78;50.16;101049.66;5079596;27;45770;-56
2021/06/30 09:01:46;;;;;;;;;8.50;8.50;;;;;22.78;50.29;101042.56;5079930;27;45214;-57
2021/06/30 09:04:13;;;;;;;;;7.00;5.25;;;;;22.79;50.27;101049.53;5079922;27;45391;-57
2021/06/30 09:06:39;;;;;;;;;7.75;5.75;;;;;22.76;49.96;101044.47;5078325;28;48183;-57
2021/06/30 09:09:10;;;;;;;;;6.50;6.50;;;;;22.82;49.72;101054.66;5079493;28;45370;-57
2021/06/30 09:11:36;;;;;;;;;7.00;7.00;;;;;22.83;50.06;101051.06;5079330;27;45227;-57
2021/06/30 09:14:40;;;;;;;;;8.75;6.25;;;;;22.85;50.14;101053.59;5078628;28;45520;-57
2021/06/30 09:17:21;;;;;;;;;10.00;7.00;;;;;22.85;49.74;101051.81;5036832;28;45742;-57
2021/06/30 09:20:05;;;;;;;;;8.50;7.25;;;;;22.87;49.67;101050.88;5078838;27;46094;-57
2021/06/30 09:22:51;;;;;;;;;7.00;5.25;;;;;22.85;49.70;101046.53;5079626;27;45470;-57
2021/06/30 09:25:31;;;;;;;;;8.00;7.25;;;;;22.85;49.74;101051.81;5078239;28;45531;-57
2021/06/30 09:27:56;;;;;;;;;5.50;5.50;;;;;22.87;49.51;101050.88;5079148;27;45536;-57
2021/06/30 09:30:22;;;;;;;;;9.00;9.00;;;;;22.85;49.29;101046.53;5079085;27;45400;-57
2021/06/30 09:32:55;;;;;;;;;13.50;11.00;;;;;22.84;49.40;101050.13;5079048;27;45299;-57
2021/06/30 09:35:29;;;;;;;;;8.25;8.00;;;;;22.82;49.40;101059.09;5079284;27;45533;-57
2021/06/30 09:37:55;;;;;;;;;8.50;8.25;;;;;22.79;49.49;101062.75;5078357;27;45576;-55
2021/06/30 09:40:21;;;;;;;;;11.00;9.25;;;;;22.77;49.89;101061.16;5078767;27;45331;-57
2021/06/30 09:42:47;;;;;;;;;11.00;11.00;;;;;22.77;50.16;101066.44;5079256;27;45308;-57
2021/06/30 09:45:14;;;;;;;;;11.00;11.00;;;;;22.75;50.19;101069.19;5079334;27;45496;-57
2021/06/30 09:47:46;;;;;;;;;10.50;10.25;;;;;22.74;50.41;101067.50;5078960;27;45445;-56
2021/06/30 09:50:12;;;;;;;;;10.25;10.00;;;;;22.75;50.05;101068.31;5079014;27;45284;-56
2021/06/30 09:52:40;;;;;;;;;9.50;8.00;;;;;22.74;50.02;101067.50;5078743;27;45338;-56
2021/06/30 09:55:25;;;;;;;;;11.75;9.75;;;;;22.76;50.46;101075.31;5079257;27;45615;-57
2021/06/30 09:57:50;;;;;;;;;7.75;7.50;;;;;22.76;49.93;101080.59;5078820;27;46400;-57
2021/06/30 10:00:16;;;;;;;;;8.00;8.00;;;;;22.78;50.09;101076.06;5078838;27;45709;-57
2021/06/30 10:02:44;;;;;;;;;10.00;10.00;;;;;22.78;49.88;101074.25;5078861;27;45374;-56
2021/06/30 10:05:10;;;;;;;;;10.25;7.50;;;;;22.78;50.01;101074.25;5078981;27;45482;-57
2021/06/30 10:07:35;;;;;;;;;6.75;6.75;;;;;22.78;49.64;101068.97;5078875;27;45316;-56
2021/06/30 10:10:08;;;;;;;;;7.75;7.75;;;;;22.79;49.74;101072.50;5078597;27;45294;-58
2021/06/30 10:12:36;;;;;;;;;9.75;9.00;;;;;22.81;50.07;101073.25;5078912;27;45489;-57
2021/06/30 10:15:04;;;;;;;;;8.25;8.25;;;;;22.81;49.43;101084.66;5077627;27;45446;-57
2021/06/30 10:17:29;;;;;;;;;7.00;6.25;;;;;22.82;49.53;101083.72;5077226;28;46082;-57
2021/06/30 10:19:56;;;;;;;;;8.25;7.75;;;;;22.82;49.64;101077.59;5078367;27;45376;-57
2021/06/30 10:22:25;;;;;;;;;8.00;8.00;;;;;22.83;49.22;101081.91;5078576;27;45424;-57
2021/06/30 10:24:50;;;;;;;;;10.50;9.50;;;;;22.83;49.63;101084.56;5078604;28;45401;-57
2021/06/30 10:27:17;;;;;;;;;8.75;8.50;;;;;22.85;49.39;101080.91;5078240;27;46034;-57
2021/06/30 10:29:57;;;;;;;;;7.00;7.00;;;;;22.87;49.44;101085.25;5078382;27;45395;-58
2021/06/30 10:32:24;;;;;;;;;7.50;7.50;;;;;22.89;49.40;101080.69;5077231;28;45360;-58
2021/06/30 10:35:14;;;;;;;;;8.25;7.75;;;;;22.89;49.48;101078.91;5078360;27;45260;-58
2021/06/30 10:37:50;;;;;;;;;8.75;8.50;;;;;22.90;49.52;101077.09;5076977;27;45354;-57
2021/06/30 10:40:17;;;;;;;;;8.50;8.50;;;;;22.88;49.26;101068.41;5078125;27;45848;-57
2021/06/30 10:42:47;;;;;;;;;6.25;6.25;;;;;22.90;49.68;101071.81;5077019;27;45481;-57
2021/06/30 10:45:13;;;;;;;;;8.50;8.25;;;;;22.91;49.27;101069.09;5078206;27;45533;-57
2021/06/30 10:47:39;;;;;;;;;9.00;7.75;;;;;22.91;49.14;101071.75;5077971;28;46037;-56
2021/06/30 10:50:21;;;;;;;;;8.25;7.00;;;;;22.90;49.37;101074.47;5078259;28;45878;-57
2021/06/30 10:52:56;;;;;;;;;7.75;7.25;;;;;22.88;49.37;101073.69;5077005;28;45311;-57
2021/06/30 10:55:37;;;;;;;;;10.50;9.25;;;;;22.88;49.12;101071.06;5077157;28;45363;-57
2021/06/30 10:58:11;;;;;;;;;9.50;8.50;;;;;22.88;49.29;101071.06;5077701;27;45566;-57
2021/06/30 11:00:50;;;;;;;;;9.00;9.00;;;;;22.87;49.26;101072.84;5077898;28;45368;-56
2021/06/30 11:03:36;;;;;;;;;7.25;7.25;;;;;22.87;49.05;101082.59;5078025;27;45393;-57
2021/06/30 11:06:13;;;;;;;;;9.00;8.00;;;;;22.86;49.24;101081.72;5077998;27;45573;-57
2021/06/30 11:08:59;;;;;;;;;7.00;7.00;;;;;22.85;49.17;101086.19;5077955;28;46258;-57
2021/06/30 11:11:24;;;;;;;;;9.00;9.00;;;;;22.86;49.12;101092.31;5077774;27;45890;-57
2021/06/30 11:14:02;;;;;;;;;10.67;8.00;;;;;22.85;49.06;101091.47;5077581;27;45310;-58
2021/06/30 11:19:17;;;;;;;;;9.25;8.50;;;;;22.87;49.04;101087.88;5077607;27;46263;-57
2021/06/30 11:21:52;;;;;;;;;8.00;8.00;;;;;22.90;48.79;101085.03;5077426;27;45653;-58
2021/06/30 11:24:33;;;;;;;;;8.50;7.75;;;;;22.90;48.72;101090.31;5077521;27;45362;-57
2021/06/30 11:27:00;;;;;;;;;10.00;9.00;;;;;22.90;48.72;101087.66;5077729;28;45341;-57